Startpagina
METAR-TAF:

METAR-TAF

Vliegvelden :

Douglas, Wyoming, Verenigde Staten

breedte: 42-47-39N, lengte: 105-22-55W, hoogte: 1502 m

Actueel weer

Dit bericht is 37 minuten geleden gemaakt, om 01:53 UTC
Wind 7 kt uit het zuidzuidoosten
Temperatuur 26°C
Vochtigheid 42%
Druk 1021 hPa
Zicht: 16.1 km
Onbewolkt

METAR: KDGW 180153Z AUTO 15007KT 10SM CLR 26/12 A3015 RMK AO2 SLP154 T02560122

Tijdstip: 20:30 (02:30 UTC)


TAF: ontbreekt

Waarnemingen en weersverwachtingen van meer dan 4000 vliegvelden (METAR en TAF).

De beschikbare stations zijn de gele en rode punten op de kaart.

Ga met uw muis naar het station om de naam te zien.

Klik dan om waarnemingen en weersverwachtingen te zien.

kaart wijzigen: klik op de groene knoppen met een zwart kruis om in te zoomen, op de groene knop met een streepje om uit te zoomen of op de groene pijlen voor aangrenzende kaarten.


METAR-TAF: